sensor_id;sensor_type;location;lat;lon;timestamp;P1;durP1;ratioP1;P2;durP2;ratioP2
56893;SDS011;43392;50.078;13.704;2023-07-09T00:00:10;8.45;;;4.80;;
56893;SDS011;43392;50.078;13.704;2023-07-09T00:02:41;8.70;;;4.50;;
56893;SDS011;43392;50.078;13.704;2023-07-09T00:05:09;8.48;;;4.78;;
56893;SDS011;43392;50.078;13.704;2023-07-09T00:07:38;9.30;;;4.53;;
56893;SDS011;43392;50.078;13.704;2023-07-09T00:10:08;8.27;;;4.57;;
56893;SDS011;43392;50.078;13.704;2023-07-09T00:12:40;11.40;;;7.60;;
56893;SDS011;43392;50.078;13.704;2023-07-09T00:15:07;20.10;;;14.10;;
56893;SDS011;43392;50.078;13.704;2023-07-09T00:17:36;34.95;;;25.20;;
56893;SDS011;43392;50.078;13.704;2023-07-09T00:20:07;37.72;;;28.38;;
56893;SDS011;43392;50.078;13.704;2023-07-09T00:22:39;34.28;;;24.50;;
56893;SDS011;43392;50.078;13.704;2023-07-09T00:25:07;28.10;;;19.58;;
56893;SDS011;43392;50.078;13.704;2023-07-09T00:27:39;21.00;;;14.80;;
56893;SDS011;43392;50.078;13.704;2023-07-09T00:30:08;15.95;;;10.30;;
56893;SDS011;43392;50.078;13.704;2023-07-09T00:32:41;15.07;;;8.65;;
56893;SDS011;43392;50.078;13.704;2023-07-09T00:35:11;17.88;;;8.73;;
56893;SDS011;43392;50.078;13.704;2023-07-09T00:37:40;12.27;;;7.80;;
56893;SDS011;43392;50.078;13.704;2023-07-09T00:40:10;12.68;;;7.80;;
56893;SDS011;43392;50.078;13.704;2023-07-09T00:42:43;12.07;;;7.20;;
56893;SDS011;43392;50.078;13.704;2023-07-09T00:45:16;16.73;;;6.53;;
56893;SDS011;43392;50.078;13.704;2023-07-09T00:47:47;9.65;;;6.40;;
56893;SDS011;43392;50.078;13.704;2023-07-09T00:50:20;11.13;;;6.20;;
56893;SDS011;43392;50.078;13.704;2023-07-09T00:52:55;9.65;;;5.38;;
56893;SDS011;43392;50.078;13.704;2023-07-09T00:55:25;8.85;;;5.15;;
56893;SDS011;43392;50.078;13.704;2023-07-09T00:57:59;10.65;;;5.07;;
56893;SDS011;43392;50.078;13.704;2023-07-09T01:03:00;9.88;;;5.60;;
56893;SDS011;43392;50.078;13.704;2023-07-09T01:05:32;9.25;;;5.35;;
56893;SDS011;43392;50.078;13.704;2023-07-09T01:07:58;10.32;;;5.28;;
56893;SDS011;43392;50.078;13.704;2023-07-09T01:10:25;9.82;;;5.60;;
56893;SDS011;43392;50.078;13.704;2023-07-09T01:12:52;14.02;;;5.50;;
56893;SDS011;43392;50.078;13.704;2023-07-09T01:15:18;7.68;;;4.43;;
56893;SDS011;43392;50.078;13.704;2023-07-09T01:17:45;8.70;;;4.75;;
56893;SDS011;43392;50.078;13.704;2023-07-09T01:20:16;8.57;;;5.18;;
56893;SDS011;43392;50.078;13.704;2023-07-09T01:22:48;8.07;;;4.60;;
56893;SDS011;43392;50.078;13.704;2023-07-09T01:25:16;10.32;;;4.97;;
56893;SDS011;43392;50.078;13.704;2023-07-09T01:27:44;7.72;;;4.93;;
56893;SDS011;43392;50.078;13.704;2023-07-09T01:30:13;6.43;;;4.30;;
56893;SDS011;43392;50.078;13.704;2023-07-09T01:32:42;7.35;;;4.70;;
56893;SDS011;43392;50.078;13.704;2023-07-09T01:35:12;9.52;;;4.95;;
56893;SDS011;43392;50.078;13.704;2023-07-09T01:37:40;9.20;;;4.90;;
56893;SDS011;43392;50.078;13.704;2023-07-09T01:40:10;7.07;;;4.35;;
56893;SDS011;43392;50.078;13.704;2023-07-09T01:42:40;7.47;;;4.40;;
56893;SDS011;43392;50.078;13.704;2023-07-09T01:45:08;8.80;;;4.20;;
56893;SDS011;43392;50.078;13.704;2023-07-09T01:47:36;8.40;;;4.25;;
56893;SDS011;43392;50.078;13.704;2023-07-09T01:50:03;9.63;;;4.40;;
56893;SDS011;43392;50.078;13.704;2023-07-09T01:52:31;8.00;;;4.30;;
56893;SDS011;43392;50.078;13.704;2023-07-09T01:54:58;8.80;;;4.10;;
56893;SDS011;43392;50.078;13.704;2023-07-09T01:57:27;9.10;;;4.40;;
56893;SDS011;43392;50.078;13.704;2023-07-09T01:59:58;10.25;;;5.70;;
56893;SDS011;43392;50.078;13.704;2023-07-09T02:02:29;10.13;;;6.25;;
56893;SDS011;43392;50.078;13.704;2023-07-09T02:04:57;9.77;;;5.78;;
56893;SDS011;43392;50.078;13.704;2023-07-09T02:07:24;10.00;;;5.57;;
56893;SDS011;43392;50.078;13.704;2023-07-09T02:09:51;7.82;;;4.57;;
56893;SDS011;43392;50.078;13.704;2023-07-09T02:12:19;8.18;;;4.50;;
56893;SDS011;43392;50.078;13.704;2023-07-09T02:14:47;9.88;;;4.40;;
56893;SDS011;43392;50.078;13.704;2023-07-09T02:17:14;7.80;;;4.47;;
56893;SDS011;43392;50.078;13.704;2023-07-09T02:19:42;10.77;;;4.93;;
56893;SDS011;43392;50.078;13.704;2023-07-09T02:22:09;7.63;;;4.78;;
56893;SDS011;43392;50.078;13.704;2023-07-09T02:24:37;8.52;;;5.30;;
56893;SDS011;43392;50.078;13.704;2023-07-09T02:27:05;8.98;;;5.10;;
56893;SDS011;43392;50.078;13.704;2023-07-09T02:29:33;8.45;;;5.10;;
56893;SDS011;43392;50.078;13.704;2023-07-09T02:32:01;8.75;;;5.25;;
56893;SDS011;43392;50.078;13.704;2023-07-09T02:34:29;10.07;;;4.90;;
56893;SDS011;43392;50.078;13.704;2023-07-09T02:36:57;10.75;;;5.35;;
56893;SDS011;43392;50.078;13.704;2023-07-09T02:39:25;9.30;;;5.32;;
56893;SDS011;43392;50.078;13.704;2023-07-09T02:41:52;8.27;;;4.88;;
56893;SDS011;43392;50.078;13.704;2023-07-09T02:44:18;7.80;;;5.05;;
56893;SDS011;43392;50.078;13.704;2023-07-09T02:46:45;9.25;;;4.88;;
56893;SDS011;43392;50.078;13.704;2023-07-09T02:49:14;11.43;;;5.30;;
56893;SDS011;43392;50.078;13.704;2023-07-09T02:51:41;10.57;;;4.95;;
56893;SDS011;43392;50.078;13.704;2023-07-09T02:54:07;7.82;;;4.55;;
56893;SDS011;43392;50.078;13.704;2023-07-09T02:56:34;10.27;;;5.10;;
56893;SDS011;43392;50.078;13.704;2023-07-09T02:59:00;8.82;;;4.72;;
56893;SDS011;43392;50.078;13.704;2023-07-09T03:01:27;7.63;;;4.65;;
56893;SDS011;43392;50.078;13.704;2023-07-09T03:03:54;8.60;;;4.88;;
56893;SDS011;43392;50.078;13.704;2023-07-09T03:06:23;8.60;;;5.28;;
56893;SDS011;43392;50.078;13.704;2023-07-09T03:08:50;7.63;;;5.10;;
56893;SDS011;43392;50.078;13.704;2023-07-09T03:11:18;11.90;;;5.65;;
56893;SDS011;43392;50.078;13.704;2023-07-09T03:13:45;10.75;;;6.00;;
56893;SDS011;43392;50.078;13.704;2023-07-09T03:16:13;9.32;;;4.85;;
56893;SDS011;43392;50.078;13.704;2023-07-09T03:18:40;8.20;;;5.10;;
56893;SDS011;43392;50.078;13.704;2023-07-09T03:21:06;10.30;;;4.95;;
56893;SDS011;43392;50.078;13.704;2023-07-09T03:23:34;7.50;;;4.70;;
56893;SDS011;43392;50.078;13.704;2023-07-09T03:26:01;9.52;;;4.70;;
56893;SDS011;43392;50.078;13.704;2023-07-09T03:28:29;8.70;;;5.38;;
56893;SDS011;43392;50.078;13.704;2023-07-09T03:30:57;9.27;;;5.55;;
56893;SDS011;43392;50.078;13.704;2023-07-09T03:33:24;9.30;;;5.90;;
56893;SDS011;43392;50.078;13.704;2023-07-09T03:35:51;9.32;;;6.00;;
56893;SDS011;43392;50.078;13.704;2023-07-09T03:38:18;10.27;;;6.38;;
56893;SDS011;43392;50.078;13.704;2023-07-09T03:40:49;8.57;;;6.00;;
56893;SDS011;43392;50.078;13.704;2023-07-09T03:43:16;13.38;;;6.75;;
56893;SDS011;43392;50.078;13.704;2023-07-09T03:45:43;13.60;;;7.10;;
56893;SDS011;43392;50.078;13.704;2023-07-09T03:48:11;11.25;;;7.55;;
56893;SDS011;43392;50.078;13.704;2023-07-09T03:50:37;11.73;;;7.50;;
56893;SDS011;43392;50.078;13.704;2023-07-09T03:53:04;12.65;;;7.43;;
56893;SDS011;43392;50.078;13.704;2023-07-09T03:55:31;11.02;;;6.80;;
56893;SDS011;43392;50.078;13.704;2023-07-09T03:57:59;15.57;;;7.20;;
56893;SDS011;43392;50.078;13.704;2023-07-09T04:00:27;11.03;;;6.17;;
56893;SDS011;43392;50.078;13.704;2023-07-09T04:02:54;11.55;;;6.60;;
56893;SDS011;43392;50.078;13.704;2023-07-09T04:05:21;12.77;;;7.40;;
56893;SDS011;43392;50.078;13.704;2023-07-09T04:07:48;8.60;;;6.07;;
56893;SDS011;43392;50.078;13.704;2023-07-09T04:10:15;11.13;;;6.78;;
56893;SDS011;43392;50.078;13.704;2023-07-09T04:12:42;9.07;;;6.32;;
56893;SDS011;43392;50.078;13.704;2023-07-09T04:15:11;10.88;;;5.32;;
56893;SDS011;43392;50.078;13.704;2023-07-09T04:17:38;10.85;;;5.53;;
56893;SDS011;43392;50.078;13.704;2023-07-09T04:20:06;11.80;;;5.43;;
56893;SDS011;43392;50.078;13.704;2023-07-09T04:22:34;10.68;;;5.43;;
56893;SDS011;43392;50.078;13.704;2023-07-09T04:25:01;8.88;;;4.50;;
56893;SDS011;43392;50.078;13.704;2023-07-09T04:27:29;8.63;;;5.13;;
56893;SDS011;43392;50.078;13.704;2023-07-09T04:29:56;9.27;;;4.90;;
56893;SDS011;43392;50.078;13.704;2023-07-09T04:32:24;10.23;;;5.80;;
56893;SDS011;43392;50.078;13.704;2023-07-09T04:34:51;8.10;;;5.38;;
56893;SDS011;43392;50.078;13.704;2023-07-09T04:37:18;10.02;;;5.63;;
56893;SDS011;43392;50.078;13.704;2023-07-09T04:39:45;11.90;;;5.50;;
56893;SDS011;43392;50.078;13.704;2023-07-09T04:42:13;12.57;;;5.85;;
56893;SDS011;43392;50.078;13.704;2023-07-09T04:44:41;10.23;;;5.82;;
56893;SDS011;43392;50.078;13.704;2023-07-09T04:47:08;11.00;;;6.03;;
56893;SDS011;43392;50.078;13.704;2023-07-09T04:49:36;8.23;;;5.75;;
56893;SDS011;43392;50.078;13.704;2023-07-09T04:52:03;9.70;;;6.15;;
56893;SDS011;43392;50.078;13.704;2023-07-09T04:54:30;12.40;;;6.18;;
56893;SDS011;43392;50.078;13.704;2023-07-09T04:56:57;9.63;;;6.72;;
56893;SDS011;43392;50.078;13.704;2023-07-09T04:59:24;10.52;;;6.60;;
56893;SDS011;43392;50.078;13.704;2023-07-09T05:01:51;10.63;;;6.78;;
56893;SDS011;43392;50.078;13.704;2023-07-09T05:04:17;9.15;;;5.97;;
56893;SDS011;43392;50.078;13.704;2023-07-09T05:06:45;10.00;;;6.45;;
56893;SDS011;43392;50.078;13.704;2023-07-09T05:09:12;12.60;;;6.60;;
56893;SDS011;43392;50.078;13.704;2023-07-09T05:11:38;13.80;;;6.03;;
56893;SDS011;43392;50.078;13.704;2023-07-09T05:14:05;9.05;;;5.80;;
56893;SDS011;43392;50.078;13.704;2023-07-09T05:16:31;9.50;;;6.25;;
56893;SDS011;43392;50.078;13.704;2023-07-09T05:18:58;9.82;;;6.20;;
56893;SDS011;43392;50.078;13.704;2023-07-09T05:21:25;10.18;;;5.72;;
56893;SDS011;43392;50.078;13.704;2023-07-09T05:23:53;11.10;;;6.65;;
56893;SDS011;43392;50.078;13.704;2023-07-09T05:26:19;10.23;;;7.07;;
56893;SDS011;43392;50.078;13.704;2023-07-09T05:28:46;10.88;;;6.70;;
56893;SDS011;43392;50.078;13.704;2023-07-09T05:31:12;11.68;;;6.60;;
56893;SDS011;43392;50.078;13.704;2023-07-09T05:33:39;10.98;;;6.40;;
56893;SDS011;43392;50.078;13.704;2023-07-09T05:36:06;12.57;;;6.55;;
56893;SDS011;43392;50.078;13.704;2023-07-09T05:38:33;9.00;;;5.93;;
56893;SDS011;43392;50.078;13.704;2023-07-09T05:41:01;12.85;;;6.57;;
56893;SDS011;43392;50.078;13.704;2023-07-09T05:43:29;10.93;;;6.23;;
56893;SDS011;43392;50.078;13.704;2023-07-09T05:45:56;9.48;;;6.20;;
56893;SDS011;43392;50.078;13.704;2023-07-09T05:48:23;9.02;;;5.97;;
56893;SDS011;43392;50.078;13.704;2023-07-09T05:50:51;10.23;;;6.22;;
56893;SDS011;43392;50.078;13.704;2023-07-09T05:53:19;10.07;;;6.60;;
56893;SDS011;43392;50.078;13.704;2023-07-09T05:55:45;12.25;;;7.47;;
56893;SDS011;43392;50.078;13.704;2023-07-09T05:58:13;12.95;;;7.80;;
56893;SDS011;43392;50.078;13.704;2023-07-09T06:00:40;12.55;;;8.52;;
56893;SDS011;43392;50.078;13.704;2023-07-09T06:03:07;12.00;;;8.10;;
56893;SDS011;43392;50.078;13.704;2023-07-09T06:05:34;12.40;;;8.02;;
56893;SDS011;43392;50.078;13.704;2023-07-09T06:08:01;13.77;;;8.50;;
56893;SDS011;43392;50.078;13.704;2023-07-09T06:10:27;13.45;;;8.18;;
56893;SDS011;43392;50.078;13.704;2023-07-09T06:12:55;10.82;;;7.80;;
56893;SDS011;43392;50.078;13.704;2023-07-09T06:15:24;12.18;;;7.95;;
56893;SDS011;43392;50.078;13.704;2023-07-09T06:17:51;13.02;;;8.77;;
56893;SDS011;43392;50.078;13.704;2023-07-09T06:20:18;13.30;;;9.02;;
56893;SDS011;43392;50.078;13.704;2023-07-09T06:22:44;19.95;;;8.70;;
56893;SDS011;43392;50.078;13.704;2023-07-09T06:25:11;13.55;;;8.85;;
56893;SDS011;43392;50.078;13.704;2023-07-09T06:27:38;13.25;;;8.93;;
56893;SDS011;43392;50.078;13.704;2023-07-09T06:30:05;14.68;;;9.63;;
56893;SDS011;43392;50.078;13.704;2023-07-09T06:32:34;17.00;;;11.18;;
56893;SDS011;43392;50.078;13.704;2023-07-09T06:35:00;15.95;;;11.52;;
56893;SDS011;43392;50.078;13.704;2023-07-09T06:37:27;16.50;;;11.40;;
56893;SDS011;43392;50.078;13.704;2023-07-09T06:39:54;18.02;;;11.30;;
56893;SDS011;43392;50.078;13.704;2023-07-09T06:42:20;14.63;;;10.25;;
56893;SDS011;43392;50.078;13.704;2023-07-09T06:44:47;14.07;;;8.90;;
56893;SDS011;43392;50.078;13.704;2023-07-09T06:47:14;13.85;;;9.35;;
56893;SDS011;43392;50.078;13.704;2023-07-09T06:49:42;13.32;;;9.30;;
56893;SDS011;43392;50.078;13.704;2023-07-09T06:52:08;14.77;;;8.90;;
56893;SDS011;43392;50.078;13.704;2023-07-09T06:54:35;14.13;;;7.78;;
56893;SDS011;43392;50.078;13.704;2023-07-09T06:57:02;9.30;;;6.35;;
56893;SDS011;43392;50.078;13.704;2023-07-09T06:59:29;7.75;;;5.20;;
56893;SDS011;43392;50.078;13.704;2023-07-09T07:01:55;11.10;;;6.32;;
56893;SDS011;43392;50.078;13.704;2023-07-09T07:04:22;9.88;;;6.15;;
56893;SDS011;43392;50.078;13.704;2023-07-09T07:06:52;10.68;;;5.80;;
56893;SDS011;43392;50.078;13.704;2023-07-09T07:09:21;10.98;;;6.32;;
56893;SDS011;43392;50.078;13.704;2023-07-09T07:11:48;8.65;;;5.35;;
56893;SDS011;43392;50.078;13.704;2023-07-09T07:14:16;10.23;;;6.65;;
56893;SDS011;43392;50.078;13.704;2023-07-09T07:16:42;11.57;;;6.70;;
56893;SDS011;43392;50.078;13.704;2023-07-09T07:19:09;11.93;;;6.40;;
56893;SDS011;43392;50.078;13.704;2023-07-09T07:21:35;8.70;;;5.30;;
56893;SDS011;43392;50.078;13.704;2023-07-09T07:24:04;8.13;;;4.90;;
56893;SDS011;43392;50.078;13.704;2023-07-09T07:26:31;7.85;;;5.38;;
56893;SDS011;43392;50.078;13.704;2023-07-09T07:28:57;7.75;;;5.00;;
56893;SDS011;43392;50.078;13.704;2023-07-09T07:31:24;8.43;;;5.50;;
56893;SDS011;43392;50.078;13.704;2023-07-09T07:33:51;9.27;;;5.22;;
56893;SDS011;43392;50.078;13.704;2023-07-09T07:36:17;10.05;;;4.93;;
56893;SDS011;43392;50.078;13.704;2023-07-09T07:38:44;9.00;;;4.95;;
56893;SDS011;43392;50.078;13.704;2023-07-09T07:41:12;9.60;;;4.45;;
56893;SDS011;43392;50.078;13.704;2023-07-09T07:43:39;7.72;;;4.05;;
56893;SDS011;43392;50.078;13.704;2023-07-09T07:46:06;8.30;;;4.40;;
56893;SDS011;43392;50.078;13.704;2023-07-09T07:48:33;10.10;;;4.25;;
56893;SDS011;43392;50.078;13.704;2023-07-09T07:51:00;7.45;;;4.25;;
56893;SDS011;43392;50.078;13.704;2023-07-09T07:53:28;8.77;;;4.20;;
56893;SDS011;43392;50.078;13.704;2023-07-09T07:55:55;7.20;;;4.40;;
56893;SDS011;43392;50.078;13.704;2023-07-09T07:58:23;7.57;;;4.25;;
56893;SDS011;43392;50.078;13.704;2023-07-09T08:00:54;7.63;;;4.20;;
56893;SDS011;43392;50.078;13.704;2023-07-09T08:03:21;7.70;;;3.95;;
56893;SDS011;43392;50.078;13.704;2023-07-09T08:05:48;8.48;;;4.03;;
56893;SDS011;43392;50.078;13.704;2023-07-09T08:08:15;7.38;;;4.07;;
56893;SDS011;43392;50.078;13.704;2023-07-09T08:10:42;8.07;;;4.40;;
56893;SDS011;43392;50.078;13.704;2023-07-09T08:13:09;8.30;;;4.22;;
56893;SDS011;43392;50.078;13.704;2023-07-09T08:15:37;7.45;;;4.20;;
56893;SDS011;43392;50.078;13.704;2023-07-09T08:18:04;7.13;;;3.97;;
56893;SDS011;43392;50.078;13.704;2023-07-09T08:20:30;7.15;;;4.30;;
56893;SDS011;43392;50.078;13.704;2023-07-09T08:22:58;12.27;;;4.55;;
56893;SDS011;43392;50.078;13.704;2023-07-09T08:25:24;8.98;;;4.15;;
56893;SDS011;43392;50.078;13.704;2023-07-09T08:27:51;9.70;;;4.28;;
56893;SDS011;43392;50.078;13.704;2023-07-09T08:30:18;8.50;;;4.00;;
56893;SDS011;43392;50.078;13.704;2023-07-09T08:32:46;5.75;;;3.58;;
56893;SDS011;43392;50.078;13.704;2023-07-09T08:35:12;8.63;;;4.35;;
56893;SDS011;43392;50.078;13.704;2023-07-09T08:37:40;8.05;;;4.68;;
56893;SDS011;43392;50.078;13.704;2023-07-09T08:40:09;8.27;;;4.53;;
56893;SDS011;43392;50.078;13.704;2023-07-09T08:42:41;10.00;;;4.85;;
56893;SDS011;43392;50.078;13.704;2023-07-09T08:45:17;10.05;;;4.70;;
56893;SDS011;43392;50.078;13.704;2023-07-09T08:47:55;8.52;;;4.30;;
56893;SDS011;43392;50.078;13.704;2023-07-09T08:50:29;7.88;;;4.00;;
56893;SDS011;43392;50.078;13.704;2023-07-09T08:53:02;12.02;;;4.22;;
56893;SDS011;43392;50.078;13.704;2023-07-09T08:55:31;9.57;;;4.78;;
56893;SDS011;43392;50.078;13.704;2023-07-09T08:58:09;7.68;;;4.60;;
56893;SDS011;43392;50.078;13.704;2023-07-09T09:00:42;5.80;;;3.17;;
56893;SDS011;43392;50.078;13.704;2023-07-09T09:03:15;7.00;;;3.60;;
56893;SDS011;43392;50.078;13.704;2023-07-09T09:05:52;5.75;;;3.45;;
56893;SDS011;43392;50.078;13.704;2023-07-09T09:08:22;6.35;;;3.53;;
56893;SDS011;43392;50.078;13.704;2023-07-09T09:10:56;6.75;;;3.40;;
56893;SDS011;43392;50.078;13.704;2023-07-09T09:13:27;4.80;;;3.22;;
56893;SDS011;43392;50.078;13.704;2023-07-09T09:15:56;8.00;;;3.35;;
56893;SDS011;43392;50.078;13.704;2023-07-09T09:18:32;8.65;;;2.97;;
56893;SDS011;43392;50.078;13.704;2023-07-09T09:21:07;5.60;;;3.05;;
56893;SDS011;43392;50.078;13.704;2023-07-09T09:23:47;6.85;;;3.40;;
56893;SDS011;43392;50.078;13.704;2023-07-09T09:26:18;4.88;;;3.00;;
56893;SDS011;43392;50.078;13.704;2023-07-09T09:28:47;9.60;;;3.30;;
56893;SDS011;43392;50.078;13.704;2023-07-09T09:31:14;6.68;;;2.85;;
56893;SDS011;43392;50.078;13.704;2023-07-09T09:33:46;6.20;;;3.30;;
56893;SDS011;43392;50.078;13.704;2023-07-09T09:36:15;7.95;;;3.45;;
56893;SDS011;43392;50.078;13.704;2023-07-09T09:38:43;6.28;;;3.60;;
56893;SDS011;43392;50.078;13.704;2023-07-09T09:41:14;6.45;;;3.50;;
56893;SDS011;43392;50.078;13.704;2023-07-09T09:43:42;6.45;;;3.38;;
56893;SDS011;43392;50.078;13.704;2023-07-09T09:46:20;7.82;;;3.50;;
56893;SDS011;43392;50.078;13.704;2023-07-09T09:48:49;8.18;;;3.58;;
56893;SDS011;43392;50.078;13.704;2023-07-09T09:51:19;6.45;;;3.60;;
56893;SDS011;43392;50.078;13.704;2023-07-09T09:53:47;7.00;;;3.53;;
56893;SDS011;43392;50.078;13.704;2023-07-09T09:56:17;8.88;;;4.03;;
56893;SDS011;43392;50.078;13.704;2023-07-09T09:58:45;7.28;;;3.63;;
56893;SDS011;43392;50.078;13.704;2023-07-09T10:01:13;8.15;;;3.97;;
56893;SDS011;43392;50.078;13.704;2023-07-09T10:03:42;7.30;;;3.70;;
56893;SDS011;43392;50.078;13.704;2023-07-09T10:06:12;7.18;;;3.72;;
56893;SDS011;43392;50.078;13.704;2023-07-09T10:08:45;6.75;;;3.70;;
56893;SDS011;43392;50.078;13.704;2023-07-09T10:11:21;8.93;;;4.22;;
56893;SDS011;43392;50.078;13.704;2023-07-09T10:13:55;7.13;;;4.03;;
56893;SDS011;43392;50.078;13.704;2023-07-09T10:16:29;7.45;;;3.65;;
56893;SDS011;43392;50.078;13.704;2023-07-09T10:19:04;7.45;;;4.00;;
56893;SDS011;43392;50.078;13.704;2023-07-09T10:21:46;11.90;;;4.13;;
56893;SDS011;43392;50.078;13.704;2023-07-09T10:24:23;10.45;;;4.22;;
56893;SDS011;43392;50.078;13.704;2023-07-09T10:27:03;7.30;;;4.03;;
56893;SDS011;43392;50.078;13.704;2023-07-09T10:29:42;7.30;;;3.60;;
56893;SDS011;43392;50.078;13.704;2023-07-09T10:32:21;7.70;;;3.90;;
56893;SDS011;43392;50.078;13.704;2023-07-09T10:40:24;6.60;;;3.90;;
56893;SDS011;43392;50.078;13.704;2023-07-09T10:42:57;6.10;;;3.83;;
56893;SDS011;43392;50.078;13.704;2023-07-09T10:45:27;10.40;;;4.10;;
56893;SDS011;43392;50.078;13.704;2023-07-09T10:47:58;9.88;;;4.25;;
56893;SDS011;43392;50.078;13.704;2023-07-09T10:50:29;10.52;;;3.97;;
56893;SDS011;43392;50.078;13.704;2023-07-09T10:53:02;7.80;;;3.63;;
56893;SDS011;43392;50.078;13.704;2023-07-09T10:55:38;7.03;;;4.03;;
56893;SDS011;43392;50.078;13.704;2023-07-09T10:58:18;8.73;;;4.20;;
56893;SDS011;43392;50.078;13.704;2023-07-09T11:00:49;7.65;;;3.78;;
56893;SDS011;43392;50.078;13.704;2023-07-09T11:03:18;8.57;;;4.07;;
56893;SDS011;43392;50.078;13.704;2023-07-09T11:05:48;7.80;;;3.85;;
56893;SDS011;43392;50.078;13.704;2023-07-09T11:08:18;7.93;;;4.10;;
56893;SDS011;43392;50.078;13.704;2023-07-09T11:10:50;8.60;;;4.28;;
56893;SDS011;43392;50.078;13.704;2023-07-09T11:13:23;8.70;;;4.05;;
56893;SDS011;43392;50.078;13.704;2023-07-09T11:15:57;8.85;;;4.05;;
56893;SDS011;43392;50.078;13.704;2023-07-09T11:18:26;7.22;;;4.10;;
56893;SDS011;43392;50.078;13.704;2023-07-09T11:20:58;7.35;;;3.83;;
56893;SDS011;43392;50.078;13.704;2023-07-09T11:23:38;7.80;;;3.97;;
56893;SDS011;43392;50.078;13.704;2023-07-09T11:26:10;7.57;;;4.03;;
56893;SDS011;43392;50.078;13.704;2023-07-09T11:28:41;7.03;;;3.72;;
56893;SDS011;43392;50.078;13.704;2023-07-09T11:31:16;7.90;;;4.18;;
56893;SDS011;43392;50.078;13.704;2023-07-09T11:33:49;7.55;;;3.97;;
56893;SDS011;43392;50.078;13.704;2023-07-09T11:36:26;8.98;;;3.75;;
56893;SDS011;43392;50.078;13.704;2023-07-09T11:38:55;11.75;;;4.10;;
56893;SDS011;43392;50.078;13.704;2023-07-09T11:41:25;6.85;;;3.92;;
56893;SDS011;43392;50.078;13.704;2023-07-09T11:44:01;8.70;;;3.88;;
56893;SDS011;43392;50.078;13.704;2023-07-09T11:46:31;6.78;;;3.90;;
56893;SDS011;43392;50.078;13.704;2023-07-09T11:48:58;7.97;;;3.95;;
56893;SDS011;43392;50.078;13.704;2023-07-09T11:51:29;8.00;;;3.95;;
56893;SDS011;43392;50.078;13.704;2023-07-09T11:54:07;10.05;;;4.30;;
56893;SDS011;43392;50.078;13.704;2023-07-09T11:56:37;8.10;;;4.25;;
56893;SDS011;43392;50.078;13.704;2023-07-09T11:59:04;9.10;;;3.95;;
56893;SDS011;43392;50.078;13.704;2023-07-09T12:01:40;7.68;;;4.10;;
56893;SDS011;43392;50.078;13.704;2023-07-09T12:04:11;8.68;;;4.15;;
56893;SDS011;43392;50.078;13.704;2023-07-09T12:06:40;8.07;;;4.10;;
56893;SDS011;43392;50.078;13.704;2023-07-09T12:09:10;7.53;;;3.83;;
56893;SDS011;43392;50.078;13.704;2023-07-09T12:11:43;8.35;;;4.40;;
56893;SDS011;43392;50.078;13.704;2023-07-09T12:14:11;7.50;;;3.70;;
56893;SDS011;43392;50.078;13.704;2023-07-09T12:16:40;6.95;;;3.72;;
56893;SDS011;43392;50.078;13.704;2023-07-09T12:19:10;8.63;;;3.60;;
56893;SDS011;43392;50.078;13.704;2023-07-09T12:21:39;6.65;;;3.63;;
56893;SDS011;43392;50.078;13.704;2023-07-09T12:24:15;9.38;;;3.95;;
56893;SDS011;43392;50.078;13.704;2023-07-09T12:26:47;7.47;;;3.60;;
56893;SDS011;43392;50.078;13.704;2023-07-09T12:29:14;7.80;;;3.65;;
56893;SDS011;43392;50.078;13.704;2023-07-09T12:31:41;7.30;;;3.70;;
56893;SDS011;43392;50.078;13.704;2023-07-09T12:34:10;10.50;;;3.55;;
56893;SDS011;43392;50.078;13.704;2023-07-09T12:36:41;9.77;;;4.20;;
56893;SDS011;43392;50.078;13.704;2023-07-09T12:39:12;8.02;;;4.28;;
56893;SDS011;43392;50.078;13.704;2023-07-09T12:41:42;7.57;;;4.10;;
56893;SDS011;43392;50.078;13.704;2023-07-09T12:44:15;8.77;;;3.58;;
56893;SDS011;43392;50.078;13.704;2023-07-09T12:46:44;6.20;;;3.65;;
56893;SDS011;43392;50.078;13.704;2023-07-09T12:49:17;7.13;;;3.97;;
56893;SDS011;43392;50.078;13.704;2023-07-09T12:51:47;7.15;;;3.50;;
56893;SDS011;43392;50.078;13.704;2023-07-09T12:54:18;9.05;;;3.78;;
56893;SDS011;43392;50.078;13.704;2023-07-09T12:56:51;7.03;;;3.42;;
56893;SDS011;43392;50.078;13.704;2023-07-09T12:59:20;10.80;;;3.88;;
56893;SDS011;43392;50.078;13.704;2023-07-09T13:01:48;7.55;;;3.92;;
56893;SDS011;43392;50.078;13.704;2023-07-09T13:04:17;5.55;;;3.33;;
56893;SDS011;43392;50.078;13.704;2023-07-09T13:06:44;8.63;;;3.72;;
56893;SDS011;43392;50.078;13.704;2023-07-09T13:09:14;8.35;;;3.78;;
56893;SDS011;43392;50.078;13.704;2023-07-09T13:11:46;6.95;;;3.70;;
56893;SDS011;43392;50.078;13.704;2023-07-09T13:14:18;6.90;;;3.90;;
56893;SDS011;43392;50.078;13.704;2023-07-09T13:16:47;8.20;;;3.72;;
56893;SDS011;43392;50.078;13.704;2023-07-09T13:19:15;6.05;;;3.55;;
56893;SDS011;43392;50.078;13.704;2023-07-09T13:21:42;7.60;;;3.50;;
56893;SDS011;43392;50.078;13.704;2023-07-09T13:24:13;6.85;;;3.63;;
56893;SDS011;43392;50.078;13.704;2023-07-09T13:26:42;7.88;;;3.72;;
56893;SDS011;43392;50.078;13.704;2023-07-09T13:29:12;7.97;;;3.85;;
56893;SDS011;43392;50.078;13.704;2023-07-09T13:31:42;8.27;;;3.45;;
56893;SDS011;43392;50.078;13.704;2023-07-09T13:34:13;7.55;;;4.10;;
56893;SDS011;43392;50.078;13.704;2023-07-09T13:36:45;7.38;;;3.50;;
56893;SDS011;43392;50.078;13.704;2023-07-09T13:39:12;6.53;;;3.97;;
56893;SDS011;43392;50.078;13.704;2023-07-09T13:41:39;10.38;;;3.88;;
56893;SDS011;43392;50.078;13.704;2023-07-09T13:44:10;8.18;;;3.97;;
56893;SDS011;43392;50.078;13.704;2023-07-09T13:46:39;6.03;;;3.65;;
56893;SDS011;43392;50.078;13.704;2023-07-09T13:49:09;6.10;;;3.70;;
56893;SDS011;43392;50.078;13.704;2023-07-09T13:51:39;7.28;;;3.85;;
56893;SDS011;43392;50.078;13.704;2023-07-09T13:54:12;8.27;;;3.85;;
56893;SDS011;43392;50.078;13.704;2023-07-09T13:56:41;7.28;;;4.07;;
56893;SDS011;43392;50.078;13.704;2023-07-09T13:59:11;8.73;;;3.80;;
56893;SDS011;43392;50.078;13.704;2023-07-09T14:01:39;5.38;;;3.40;;
56893;SDS011;43392;50.078;13.704;2023-07-09T14:04:08;5.95;;;3.47;;
56893;SDS011;43392;50.078;13.704;2023-07-09T14:06:37;6.22;;;3.67;;
56893;SDS011;43392;50.078;13.704;2023-07-09T14:09:04;8.98;;;3.92;;
56893;SDS011;43392;50.078;13.704;2023-07-09T14:11:31;7.32;;;3.78;;
56893;SDS011;43392;50.078;13.704;2023-07-09T14:13:58;8.00;;;3.90;;
56893;SDS011;43392;50.078;13.704;2023-07-09T14:16:25;7.30;;;3.70;;
56893;SDS011;43392;50.078;13.704;2023-07-09T14:18:52;6.88;;;3.78;;
56893;SDS011;43392;50.078;13.704;2023-07-09T14:21:21;8.02;;;3.97;;
56893;SDS011;43392;50.078;13.704;2023-07-09T14:23:51;7.53;;;4.00;;
56893;SDS011;43392;50.078;13.704;2023-07-09T14:26:17;7.85;;;3.67;;
56893;SDS011;43392;50.078;13.704;2023-07-09T14:28:44;9.80;;;4.45;;
56893;SDS011;43392;50.078;13.704;2023-07-09T14:31:14;7.00;;;3.90;;
56893;SDS011;43392;50.078;13.704;2023-07-09T14:33:47;6.68;;;3.35;;
56893;SDS011;43392;50.078;13.704;2023-07-09T14:36:15;8.75;;;3.97;;
56893;SDS011;43392;50.078;13.704;2023-07-09T14:38:43;6.10;;;3.40;;
56893;SDS011;43392;50.078;13.704;2023-07-09T14:41:16;8.85;;;3.78;;
56893;SDS011;43392;50.078;13.704;2023-07-09T14:43:47;7.28;;;3.75;;
56893;SDS011;43392;50.078;13.704;2023-07-09T14:46:14;6.03;;;3.67;;
56893;SDS011;43392;50.078;13.704;2023-07-09T14:48:40;7.93;;;3.67;;